createdAt,value
2022-11-29T00:00:06.844Z,7.23
2022-11-29T00:02:33.184Z,6.53
2022-11-29T00:04:59.506Z,6.10
2022-11-29T00:07:25.831Z,6.73
2022-11-29T00:09:52.101Z,5.70
2022-11-29T00:12:18.494Z,6.07
2022-11-29T00:14:44.953Z,6.37
2022-11-29T00:17:11.405Z,5.93
2022-11-29T00:19:37.777Z,5.70
2022-11-29T00:22:04.409Z,5.23
2022-11-29T00:24:32.446Z,6.07
2022-11-29T00:26:59.001Z,6.20
2022-11-29T00:29:25.249Z,5.03
2022-11-29T00:31:51.510Z,5.83
2022-11-29T00:34:17.787Z,5.53
2022-11-29T00:36:44.082Z,5.43
2022-11-29T00:39:11.829Z,4.40
2022-11-29T00:41:38.874Z,6.83
2022-11-29T00:44:19.658Z,6.70
2022-11-29T00:46:46.638Z,5.90
2022-11-29T00:49:12.994Z,5.93
2022-11-29T00:51:39.260Z,6.13
2022-11-29T00:54:05.570Z,6.07
2022-11-29T00:56:31.954Z,6.87
2022-11-29T00:58:58.300Z,6.20
2022-11-29T01:01:24.711Z,6.40
2022-11-29T01:03:51.140Z,6.33
2022-11-29T01:06:17.917Z,5.03
2022-11-29T01:08:45.696Z,5.57
2022-11-29T01:11:14.017Z,6.07
2022-11-29T01:13:40.680Z,5.57
2022-11-29T01:16:07.303Z,6.10
2022-11-29T01:18:33.955Z,5.60
2022-11-29T01:21:01.509Z,6.33
2022-11-29T01:23:28.566Z,5.97
2022-11-29T01:26:05.981Z,8.77
2022-11-29T01:28:32.690Z,6.97
2022-11-29T01:30:59.173Z,8.40
2022-11-29T01:33:25.535Z,8.23
2022-11-29T01:35:53.338Z,9.03
2022-11-29T01:38:19.847Z,9.63
2022-11-29T01:40:55.864Z,8.53
2022-11-29T01:43:22.373Z,7.83
2022-11-29T01:45:49.280Z,8.43
2022-11-29T01:48:16.420Z,8.77
2022-11-29T01:50:43.108Z,8.60
2022-11-29T01:53:10.966Z,9.00
2022-11-29T01:55:39.232Z,8.63
2022-11-29T01:58:06.414Z,8.03
2022-11-29T02:00:32.731Z,8.13
2022-11-29T02:03:03.355Z,8.97
2022-11-29T02:05:29.665Z,7.90
2022-11-29T02:07:57.555Z,8.97
2022-11-29T02:10:38.267Z,9.53
2022-11-29T02:13:23.102Z,10.13
2022-11-29T02:16:11.247Z,10.55
2022-11-29T02:18:44.683Z,7.87
2022-11-29T02:21:29.643Z,9.53
2022-11-29T02:23:58.889Z,8.65
2022-11-29T02:26:44.017Z,8.77
2022-11-29T02:29:10.290Z,7.88
2022-11-29T02:31:39.670Z,8.60
2022-11-29T02:34:24.829Z,8.67
2022-11-29T02:37:07.149Z,8.23
2022-11-29T02:39:39.295Z,7.65
2022-11-29T02:42:14.454Z,8.40
2022-11-29T02:44:46.755Z,9.05
2022-11-29T02:47:13.176Z,8.37
2022-11-29T02:49:39.693Z,8.53
2022-11-29T02:52:13.926Z,7.00
2022-11-29T02:54:50.078Z,7.47
2022-11-29T02:57:35.186Z,8.40
2022-11-29T03:00:05.061Z,8.80
2022-11-29T03:02:49.934Z,9.17
2022-11-29T03:05:16.384Z,7.78
2022-11-29T03:07:45.832Z,7.30
2022-11-29T03:10:20.953Z,6.17
2022-11-29T03:12:48.740Z,6.22
2022-11-29T03:15:17.864Z,6.87
2022-11-29T03:18:02.929Z,7.20
2022-11-29T03:20:47.773Z,6.57
2022-11-29T03:23:14.585Z,5.28
2022-11-29T03:25:47.970Z,7.20
2022-11-29T03:28:22.544Z,6.13
2022-11-29T03:31:07.103Z,6.32
2022-11-29T03:33:56.779Z,7.00
2022-11-29T03:36:34.366Z,6.30
2022-11-29T03:39:04.106Z,6.17
2022-11-29T03:41:51.651Z,6.97
2022-11-29T03:44:20.188Z,7.03
2022-11-29T03:46:50.118Z,6.27
2022-11-29T03:49:20.745Z,7.33
2022-11-29T03:52:05.987Z,6.50
2022-11-29T03:54:43.275Z,6.40
2022-11-29T03:57:10.767Z,6.73
2022-11-29T03:59:44.402Z,5.83
2022-11-29T04:02:29.522Z,6.33
2022-11-29T04:04:55.814Z,6.05
2022-11-29T04:07:31.654Z,6.37
2022-11-29T04:10:19.725Z,6.17
2022-11-29T04:12:49.205Z,6.37
2022-11-29T04:15:18.295Z,6.53
2022-11-29T04:18:01.407Z,5.87
2022-11-29T04:20:40.394Z,6.20
2022-11-29T04:23:12.299Z,6.33
2022-11-29T04:25:38.641Z,7.20
2022-11-29T04:28:23.672Z,7.03
2022-11-29T04:31:01.958Z,6.43
2022-11-29T04:33:52.402Z,6.33
2022-11-29T04:36:27.766Z,6.13
2022-11-29T04:39:03.017Z,6.17
2022-11-29T04:44:01.634Z,6.33
2022-11-29T04:46:33.920Z,6.17
2022-11-29T04:49:07.033Z,6.40
2022-11-29T04:51:52.093Z,6.43
2022-11-29T04:54:24.094Z,6.22
2022-11-29T04:56:53.859Z,6.73
2022-11-29T04:59:23.113Z,6.77
2022-11-29T05:01:49.462Z,6.43
2022-11-29T05:04:25.362Z,5.90
2022-11-29T05:07:14.553Z,6.03
2022-11-29T05:09:46.739Z,5.60
2022-11-29T05:12:23.096Z,7.30
2022-11-29T05:14:58.337Z,6.20
2022-11-29T05:20:03.542Z,6.17
2022-11-29T05:22:50.106Z,6.30
2022-11-29T05:25:31.610Z,6.47
2022-11-29T05:28:03.390Z,6.37
2022-11-29T05:30:51.781Z,5.70
2022-11-29T05:33:18.058Z,6.43
2022-11-29T05:35:54.627Z,4.43
2022-11-29T05:38:32.819Z,7.60
2022-11-29T05:41:11.298Z,6.27
2022-11-29T05:43:45.419Z,7.67
2022-11-29T05:46:17.530Z,9.73
2022-11-29T05:48:48.335Z,9.53
2022-11-29T05:51:33.629Z,10.07
2022-11-29T05:53:59.890Z,10.30
2022-11-29T05:56:26.121Z,9.43
2022-11-29T05:59:01.019Z,9.80
2022-11-29T06:01:46.207Z,8.35
2022-11-29T06:04:15.388Z,8.70
2022-11-29T06:06:47.853Z,10.10
2022-11-29T06:09:21.703Z,8.60
2022-11-29T06:12:05.216Z,9.77
2022-11-29T06:14:50.527Z,9.43
2022-11-29T06:17:38.782Z,10.52
2022-11-29T06:20:09.029Z,12.13
2022-11-29T06:22:50.344Z,10.30
2022-11-29T06:25:42.679Z,10.93
2022-11-29T06:28:25.922Z,8.73
2022-11-29T06:30:55.965Z,10.03
2022-11-29T06:33:28.881Z,9.93
2022-11-29T06:35:57.898Z,10.40
2022-11-29T06:38:28.943Z,9.43
2022-11-29T06:41:01.528Z,10.33
2022-11-29T06:43:29.012Z,9.50
2022-11-29T06:46:03.351Z,9.80
2022-11-29T06:48:34.439Z,10.60
2022-11-29T06:51:10.766Z,10.43
2022-11-29T06:53:51.701Z,9.40
2022-11-29T06:56:20.947Z,10.03
2022-11-29T06:58:47.198Z,10.07
2022-11-29T07:01:13.494Z,9.83
2022-11-29T07:03:55.383Z,9.47
2022-11-29T07:06:23.818Z,10.00
2022-11-29T07:08:53.654Z,10.40
2022-11-29T07:11:20.131Z,10.23
2022-11-29T07:13:46.615Z,10.23
2022-11-29T07:16:18.818Z,10.67
2022-11-29T07:19:00.365Z,10.10
2022-11-29T07:21:32.504Z,9.47
2022-11-29T07:24:08.041Z,9.53
2022-11-29T07:26:37.210Z,9.33
2022-11-29T07:29:06.814Z,10.43
2022-11-29T07:32:05.361Z,9.70
2022-11-29T07:34:49.855Z,9.77
2022-11-29T07:37:22.123Z,9.73
2022-11-29T07:40:14.369Z,10.10
2022-11-29T07:42:49.263Z,10.27
2022-11-29T07:45:29.531Z,9.48
2022-11-29T07:47:55.796Z,9.17
2022-11-29T07:50:22.157Z,10.47
2022-11-29T07:52:48.913Z,9.80
2022-11-29T07:55:19.026Z,8.70
2022-11-29T07:57:45.630Z,8.33
2022-11-29T08:00:12.192Z,9.23
2022-11-29T08:02:38.735Z,7.67
2022-11-29T08:05:05.237Z,8.27
2022-11-29T08:07:34.212Z,9.40
2022-11-29T08:10:00.563Z,9.50
2022-11-29T08:12:26.849Z,8.17
2022-11-29T08:14:53.102Z,9.67
2022-11-29T08:17:19.377Z,10.77
2022-11-29T08:19:45.633Z,8.63
2022-11-29T08:22:12.216Z,9.57
2022-11-29T08:24:38.540Z,10.73
2022-11-29T08:27:04.810Z,10.17
2022-11-29T08:29:31.174Z,11.53
2022-11-29T08:31:57.542Z,8.90
2022-11-29T08:34:24.642Z,9.77
2022-11-29T08:36:51.266Z,10.63
2022-11-29T08:39:17.536Z,8.97
2022-11-29T08:41:43.820Z,12.40
2022-11-29T08:44:10.094Z,9.60
2022-11-29T08:46:54.981Z,9.17
2022-11-29T08:49:21.240Z,9.60
2022-11-29T08:51:47.508Z,11.03
2022-11-29T08:54:13.772Z,9.97
2022-11-29T08:59:27.028Z,10.63
2022-11-29T09:01:53.454Z,10.60
2022-11-29T09:04:19.738Z,10.57
2022-11-29T09:06:49.182Z,10.40
2022-11-29T09:09:16.276Z,8.10
2022-11-29T09:11:45.863Z,12.07
2022-11-29T09:14:16.171Z,11.00
2022-11-29T09:16:42.478Z,11.40
2022-11-29T09:19:08.741Z,10.83
2022-11-29T09:21:36.721Z,9.37
2022-11-29T09:24:06.097Z,9.43
2022-11-29T09:26:33.702Z,9.63
2022-11-29T09:29:04.113Z,11.13
2022-11-29T09:31:31.083Z,10.27
2022-11-29T09:33:57.633Z,9.87
2022-11-29T09:36:28.553Z,12.37
2022-11-29T09:38:55.424Z,10.27
2022-11-29T09:41:33.772Z,10.03
2022-11-29T09:44:00.761Z,11.03
2022-11-29T09:46:33.152Z,11.50
2022-11-29T09:49:19.682Z,11.83
2022-11-29T09:51:54.950Z,11.33
2022-11-29T09:56:49.983Z,11.60
2022-11-29T09:59:19.032Z,9.40
2022-11-29T10:01:47.458Z,9.47
2022-11-29T10:04:18.649Z,11.63
2022-11-29T10:07:08.305Z,11.70
2022-11-29T10:09:43.443Z,10.83
2022-11-29T10:12:16.343Z,11.75
2022-11-29T10:14:42.746Z,12.97
2022-11-29T10:17:18.073Z,12.20
2022-11-29T10:19:47.229Z,8.77
2022-11-29T10:22:33.743Z,10.63
2022-11-29T10:25:02.034Z,11.57
2022-11-29T10:27:29.549Z,11.90
2022-11-29T10:29:56.450Z,8.43
2022-11-29T10:32:24.853Z,9.57
2022-11-29T10:34:51.870Z,9.37
2022-11-29T10:37:19.574Z,10.67
2022-11-29T10:39:47.916Z,8.73
2022-11-29T10:42:36.808Z,9.77
2022-11-29T10:45:04.063Z,9.90
2022-11-29T10:47:31.101Z,10.63
2022-11-29T10:49:57.467Z,10.43
2022-11-29T10:52:23.789Z,9.00
2022-11-29T10:54:52.786Z,9.70
2022-11-29T10:57:20.933Z,10.97
2022-11-29T11:00:07.149Z,12.07
2022-11-29T11:02:33.890Z,10.03
2022-11-29T11:05:01.184Z,11.80
2022-11-29T11:07:30.029Z,11.20
2022-11-29T11:09:57.697Z,11.83
2022-11-29T11:12:26.856Z,9.87
2022-11-29T11:15:12.292Z,9.30
2022-11-29T11:17:40.037Z,10.25
2022-11-29T11:20:18.587Z,12.83
2022-11-29T11:22:54.870Z,10.57
2022-11-29T11:25:32.102Z,11.57
2022-11-29T11:28:10.480Z,11.13
2022-11-29T11:30:36.840Z,12.70
2022-11-29T11:33:06.795Z,12.17
2022-11-29T11:35:33.089Z,12.30
2022-11-29T11:37:59.401Z,13.57
2022-11-29T11:40:28.896Z,13.23
2022-11-29T11:42:57.667Z,12.73
2022-11-29T11:45:31.409Z,10.33
2022-11-29T11:47:59.457Z,12.57
2022-11-29T11:50:40.702Z,11.33
2022-11-29T11:53:07.990Z,11.20
2022-11-29T11:55:36.130Z,12.70
2022-11-29T11:58:10.174Z,14.30
2022-11-29T12:01:04.809Z,11.75
2022-11-29T12:03:35.873Z,12.30
2022-11-29T12:06:22.480Z,12.60
2022-11-29T12:08:49.405Z,12.17
2022-11-29T12:11:17.117Z,13.93
2022-11-29T12:13:55.129Z,11.27
2022-11-29T12:16:27.511Z,11.40
2022-11-29T12:18:58.429Z,13.90
2022-11-29T12:21:27.602Z,13.17
2022-11-29T12:23:53.893Z,11.97
2022-11-29T12:26:48.850Z,13.87
2022-11-29T12:29:15.463Z,12.30
2022-11-29T12:31:44.477Z,13.93
2022-11-29T12:34:10.729Z,11.83
2022-11-29T12:36:40.081Z,12.60
2022-11-29T12:39:09.231Z,13.57
2022-11-29T12:41:41.330Z,11.60
2022-11-29T12:44:30.646Z,14.37
2022-11-29T12:47:34.661Z,11.87
2022-11-29T12:49:55.047Z,13.63
2022-11-29T12:52:34.690Z,12.80
2022-11-29T12:55:10.424Z,12.25
2022-11-29T12:57:42.532Z,13.93
2022-11-29T13:00:16.436Z,13.30
2022-11-29T13:03:01.420Z,12.17
2022-11-29T13:05:46.315Z,12.00
2022-11-29T13:08:22.335Z,12.30
2022-11-29T13:11:02.627Z,12.60
2022-11-29T13:13:34.785Z,11.20
2022-11-29T13:16:04.030Z,15.23
2022-11-29T13:18:49.151Z,13.17
2022-11-29T13:21:38.306Z,13.40
2022-11-29T13:24:09.069Z,11.53
2022-11-29T13:26:36.676Z,11.95
2022-11-29T13:29:03.329Z,11.47
2022-11-29T13:31:29.969Z,11.97
2022-11-29T13:33:56.268Z,12.20
2022-11-29T13:36:28.747Z,13.77
2022-11-29T13:38:58.166Z,12.77
2022-11-29T13:41:24.583Z,12.13
2022-11-29T13:44:04.281Z,13.13
2022-11-29T13:46:36.555Z,13.27
2022-11-29T13:49:03.156Z,14.33
2022-11-29T13:51:32.682Z,12.17
2022-11-29T13:54:03.266Z,11.80
2022-11-29T13:56:32.763Z,12.97
2022-11-29T13:59:00.964Z,13.50
2022-11-29T14:01:27.697Z,10.03
2022-11-29T14:04:03.078Z,14.37
2022-11-29T14:09:17.695Z,11.40
2022-11-29T14:11:48.787Z,13.20
2022-11-29T14:14:24.678Z,13.23
2022-11-29T14:16:53.273Z,11.93
2022-11-29T14:19:21.240Z,13.18
2022-11-29T14:22:02.844Z,10.98
2022-11-29T14:24:31.891Z,13.90
2022-11-29T14:27:18.115Z,10.77
2022-11-29T14:29:47.189Z,10.73
2022-11-29T14:32:24.195Z,11.53
2022-11-29T14:35:03.902Z,11.15
2022-11-29T14:37:45.571Z,11.98
2022-11-29T14:40:32.230Z,12.30
2022-11-29T14:43:00.245Z,12.57
2022-11-29T14:45:28.710Z,12.73
2022-11-29T14:47:55.260Z,12.47
2022-11-29T14:50:35.526Z,14.52
2022-11-29T14:53:03.095Z,14.13
2022-11-29T14:55:31.510Z,13.95
2022-11-29T14:58:00.553Z,14.55
2022-11-29T15:00:28.233Z,16.45
2022-11-29T15:03:00.237Z,16.30
2022-11-29T15:05:31.794Z,15.80
2022-11-29T15:08:30.522Z,14.70
2022-11-29T15:11:04.906Z,15.40
2022-11-29T15:13:33.255Z,13.60
2022-11-29T15:16:08.643Z,16.00
2022-11-29T15:18:35.500Z,15.90
2022-11-29T15:21:20.646Z,14.70
2022-11-29T15:23:46.944Z,16.17
2022-11-29T15:26:17.958Z,15.47
2022-11-29T15:28:44.610Z,16.20
2022-11-29T15:31:13.004Z,15.52
2022-11-29T15:33:40.698Z,15.35
2022-11-29T15:36:08.282Z,15.38
2022-11-29T15:38:51.187Z,15.10
2022-11-29T15:41:30.920Z,14.23
2022-11-29T15:44:04.953Z,16.58
2022-11-29T15:46:32.338Z,15.25
2022-11-29T15:49:18.050Z,15.90
2022-11-29T15:54:28.574Z,17.40
2022-11-29T15:56:56.274Z,15.30
2022-11-29T15:59:42.772Z,17.48
2022-11-29T16:02:15.292Z,18.17
2022-11-29T16:04:46.777Z,26.67
2022-11-29T16:07:13.786Z,21.25
2022-11-29T16:09:42.343Z,20.80
2022-11-29T16:12:13.127Z,20.63
2022-11-29T16:14:49.197Z,20.25
2022-11-29T16:17:15.799Z,18.40
2022-11-29T16:19:42.971Z,23.40
2022-11-29T16:22:14.895Z,18.52
2022-11-29T16:24:50.568Z,19.33
2022-11-29T16:27:19.021Z,17.60
2022-11-29T16:29:45.834Z,17.42
2022-11-29T16:32:13.421Z,18.00
2022-11-29T16:34:41.343Z,21.13
2022-11-29T16:37:14.297Z,19.70
2022-11-29T16:39:40.640Z,22.20
2022-11-29T16:42:13.178Z,20.07
2022-11-29T16:44:39.449Z,22.40
2022-11-29T16:47:20.027Z,21.97
2022-11-29T16:50:03.213Z,20.88
2022-11-29T16:52:30.872Z,21.40
2022-11-29T16:54:57.392Z,21.67
2022-11-29T16:57:24.081Z,20.87
2022-11-29T16:59:50.568Z,21.67
2022-11-29T17:02:17.216Z,20.00
2022-11-29T17:04:43.861Z,21.95
2022-11-29T17:07:30.376Z,17.23
2022-11-29T17:09:57.134Z,18.88
2022-11-29T17:12:23.558Z,18.55
2022-11-29T17:14:49.914Z,20.47
2022-11-29T17:17:17.290Z,18.50
2022-11-29T17:19:43.575Z,18.48
2022-11-29T17:22:09.870Z,18.60
2022-11-29T17:24:36.954Z,19.17
2022-11-29T17:27:03.301Z,19.48
2022-11-29T17:29:29.552Z,29.30
2022-11-29T17:31:55.879Z,20.65
2022-11-29T17:34:22.274Z,17.20
2022-11-29T17:36:48.710Z,15.38
2022-11-29T17:39:15.741Z,15.60
2022-11-29T17:41:42.074Z,16.33
2022-11-29T17:44:08.457Z,16.10
2022-11-29T17:46:35.845Z,15.57
2022-11-29T17:49:03.618Z,15.95
2022-11-29T17:54:16.477Z,17.67
2022-11-29T17:56:42.744Z,19.65
2022-11-29T17:59:09.037Z,20.17
2022-11-29T18:01:36.161Z,23.87
2022-11-29T18:04:04.226Z,20.23
2022-11-29T18:06:35.595Z,18.57
2022-11-29T18:09:02.535Z,18.83
2022-11-29T18:11:30.430Z,19.73
2022-11-29T18:13:57.733Z,20.90
2022-11-29T18:16:25.543Z,19.10
2022-11-29T18:18:56.719Z,21.27
2022-11-29T18:21:23.030Z,20.73
2022-11-29T18:23:49.357Z,20.73
2022-11-29T18:26:16.812Z,19.63
2022-11-29T18:28:44.038Z,21.30
2022-11-29T18:31:12.340Z,18.73
2022-11-29T18:33:39.748Z,20.10
2022-11-29T18:36:09.792Z,20.40
2022-11-29T18:38:36.962Z,20.47
2022-11-29T18:41:07.532Z,24.07
2022-11-29T18:43:33.923Z,25.53
2022-11-29T18:46:05.957Z,24.93
2022-11-29T18:48:32.280Z,22.80
2022-11-29T18:51:02.536Z,19.77
2022-11-29T18:53:28.818Z,21.35
2022-11-29T18:56:05.520Z,19.98
2022-11-29T18:58:31.928Z,22.07
2022-11-29T19:01:08.675Z,20.07
2022-11-29T19:03:36.532Z,17.47
2022-11-29T19:06:04.399Z,18.90
2022-11-29T19:08:30.736Z,16.97
2022-11-29T19:10:57.005Z,19.33
2022-11-29T19:13:23.322Z,18.43
2022-11-29T19:15:55.810Z,19.07
2022-11-29T19:18:22.253Z,17.77
2022-11-29T19:20:48.690Z,21.37
2022-11-29T19:23:15.380Z,18.73
2022-11-29T19:25:41.730Z,20.07
2022-11-29T19:28:13.763Z,20.27
2022-11-29T19:30:40.600Z,17.77
2022-11-29T19:33:06.943Z,15.97
2022-11-29T19:35:34.361Z,18.27
2022-11-29T19:38:00.633Z,17.03
2022-11-29T19:40:27.480Z,19.37
2022-11-29T19:42:53.729Z,16.87
2022-11-29T19:45:21.749Z,16.73
2022-11-29T19:47:48.042Z,17.07
2022-11-29T19:50:14.323Z,19.30
2022-11-29T19:52:40.579Z,21.77
2022-11-29T19:55:06.937Z,18.30
2022-11-29T19:57:33.236Z,21.87
2022-11-29T19:59:59.518Z,18.43
2022-11-29T20:02:25.922Z,18.10
2022-11-29T20:04:52.257Z,19.37
2022-11-29T20:07:18.564Z,20.30
2022-11-29T20:09:45.187Z,20.97
2022-11-29T20:12:11.615Z,18.57
2022-11-29T20:14:37.933Z,21.10
2022-11-29T20:17:04.241Z,19.57
2022-11-29T20:19:30.783Z,17.10
2022-11-29T20:21:57.070Z,17.60
2022-11-29T20:24:23.360Z,18.70
2022-11-29T20:26:49.776Z,20.53
2022-11-29T20:29:16.552Z,20.30
2022-11-29T20:31:49.564Z,18.63
2022-11-29T20:34:17.327Z,18.23
2022-11-29T20:36:43.738Z,20.57
2022-11-29T20:39:19.008Z,18.47
2022-11-29T20:44:14.926Z,17.93
2022-11-29T20:46:41.398Z,19.77
2022-11-29T20:49:08.299Z,19.50
2022-11-29T20:51:38.603Z,18.17
2022-11-29T20:54:04.914Z,19.50
2022-11-29T20:56:31.209Z,20.47
2022-11-29T20:58:57.516Z,20.50
2022-11-29T21:01:23.905Z,22.43
2022-11-29T21:03:50.383Z,19.10
2022-11-29T21:06:16.661Z,16.20
2022-11-29T21:08:42.949Z,19.50
2022-11-29T21:11:10.297Z,20.87
2022-11-29T21:13:36.748Z,20.30
2022-11-29T21:16:03.494Z,21.27
2022-11-29T21:18:30.443Z,19.40
2022-11-29T21:20:59.909Z,19.77
2022-11-29T21:23:32.166Z,20.87
2022-11-29T21:26:02.449Z,20.97
2022-11-29T21:28:30.500Z,20.40
2022-11-29T21:30:56.911Z,18.33
2022-11-29T21:33:23.318Z,18.57
2022-11-29T21:35:52.667Z,17.87
2022-11-29T21:38:21.467Z,21.07
2022-11-29T21:40:47.769Z,19.83
2022-11-29T21:43:14.032Z,20.17
2022-11-29T21:45:40.309Z,18.23
2022-11-29T21:48:26.542Z,19.37
2022-11-29T21:50:52.797Z,19.03
2022-11-29T21:53:19.065Z,18.23
2022-11-29T21:55:45.323Z,18.60
2022-11-29T21:58:11.577Z,19.13
2022-11-29T22:00:37.977Z,17.90
2022-11-29T22:03:04.287Z,17.77
2022-11-29T22:05:30.598Z,20.60
2022-11-29T22:07:56.975Z,20.03
2022-11-29T22:10:23.288Z,18.00
2022-11-29T22:12:52.207Z,19.50
2022-11-29T22:15:24.118Z,18.93
2022-11-29T22:17:51.002Z,19.60
2022-11-29T22:20:17.273Z,18.80
2022-11-29T22:22:43.523Z,18.27
2022-11-29T22:25:09.786Z,20.80
2022-11-29T22:27:36.093Z,19.00
2022-11-29T22:30:02.394Z,20.63
2022-11-29T22:32:28.690Z,20.10
2022-11-29T22:34:54.937Z,18.77
2022-11-29T22:37:21.196Z,20.53
2022-11-29T22:39:47.526Z,21.10
2022-11-29T22:42:13.833Z,18.00
2022-11-29T22:44:40.157Z,19.67
2022-11-29T22:47:06.506Z,18.83
2022-11-29T22:49:33.340Z,18.47
2022-11-29T22:51:59.622Z,21.87
2022-11-29T22:54:25.870Z,19.07
2022-11-29T22:56:52.421Z,18.60
2022-11-29T22:59:18.693Z,19.77
2022-11-29T23:01:45.035Z,19.77
2022-11-29T23:04:12.059Z,16.10
2022-11-29T23:06:42.418Z,21.23
2022-11-29T23:09:16.823Z,19.20
2022-11-29T23:11:44.294Z,19.45
2022-11-29T23:14:10.574Z,20.70
2022-11-29T23:16:37.142Z,17.90
2022-11-29T23:19:03.437Z,20.83
2022-11-29T23:21:33.800Z,19.37
2022-11-29T23:24:00.912Z,19.17
2022-11-29T23:26:27.169Z,18.67
2022-11-29T23:28:53.989Z,18.00
2022-11-29T23:31:20.654Z,17.90
2022-11-29T23:33:46.945Z,19.90
2022-11-29T23:36:14.251Z,18.23
2022-11-29T23:38:40.555Z,20.03
2022-11-29T23:41:07.516Z,18.50
2022-11-29T23:43:35.061Z,19.60
2022-11-29T23:46:07.371Z,18.43
2022-11-29T23:48:33.730Z,20.43
2022-11-29T23:51:00.558Z,20.57
2022-11-29T23:53:26.945Z,19.40
2022-11-29T23:55:57.159Z,19.67
2022-11-29T23:58:23.560Z,20.47
